Gunnislake, United Kingdom
Current Conditions -  °F | °C
As of 1:20 PM on Sunday 23 Nov 2014 (Local Time) from EGHQ Reporting Station
Scattered Clouds Scattered Clouds  
Wind Chill: 50°   Ceiling: Unl
Heat Index: 50°   Visibility: 6mi
Dew Point: 41°   Wind: 14mph
Humidity: 71%   Direction: 350°N
Pressure: 30.09"   Gusts: NA
Location:  50.52°N, 4.21°W
Report Text: EGHQ 231320Z 35012KT 9999 SCT024 10/05 Q1019
Loading
Personal Weather Stations






























Interactive Weather Map New forecast layout! Learn more

10-Day Weather Forecast

Advertisements
Track Severe Weather on mobile